sensor_id;sensor_type;location;lat;lon;timestamp;temperature;humidity
21861;DHT22;11095;48.066;8.540;2022-09-06T00:02:11;15.10;99.90
21861;DHT22;11095;48.066;8.540;2022-09-06T00:04:37;15.10;99.90
21861;DHT22;11095;48.066;8.540;2022-09-06T00:07:03;15.10;99.90
21861;DHT22;11095;48.066;8.540;2022-09-06T00:09:29;15.10;99.90
21861;DHT22;11095;48.066;8.540;2022-09-06T00:11:55;15.10;99.90
21861;DHT22;11095;48.066;8.540;2022-09-06T00:14:21;15.00;99.90
21861;DHT22;11095;48.066;8.540;2022-09-06T00:16:46;15.00;99.90
21861;DHT22;11095;48.066;8.540;2022-09-06T00:19:12;15.00;99.90
21861;DHT22;11095;48.066;8.540;2022-09-06T00:21:37;15.00;99.90
21861;DHT22;11095;48.066;8.540;2022-09-06T00:24:03;15.00;99.90
21861;DHT22;11095;48.066;8.540;2022-09-06T00:26:29;15.00;99.90
21861;DHT22;11095;48.066;8.540;2022-09-06T00:28:54;15.00;99.90
21861;DHT22;11095;48.066;8.540;2022-09-06T00:31:22;15.00;99.90
21861;DHT22;11095;48.066;8.540;2022-09-06T00:33:49;15.00;99.90
21861;DHT22;11095;48.066;8.540;2022-09-06T00:36:15;15.00;99.90
21861;DHT22;11095;48.066;8.540;2022-09-06T00:38:41;15.00;99.90
21861;DHT22;11095;48.066;8.540;2022-09-06T00:41:09;14.90;99.90
21861;DHT22;11095;48.066;8.540;2022-09-06T00:43:35;14.90;99.90
21861;DHT22;11095;48.066;8.540;2022-09-06T00:46:02;14.90;99.90
21861;DHT22;11095;48.066;8.540;2022-09-06T00:48:29;14.90;99.90
21861;DHT22;11095;48.066;8.540;2022-09-06T00:50:59;14.80;99.90
21861;DHT22;11095;48.066;8.540;2022-09-06T00:53:26;14.80;99.90
21861;DHT22;11095;48.066;8.540;2022-09-06T00:55:53;14.80;99.90
21861;DHT22;11095;48.066;8.540;2022-09-06T00:58:19;14.80;99.90
21861;DHT22;11095;48.066;8.540;2022-09-06T01:00:45;14.70;99.90
21861;DHT22;11095;48.066;8.540;2022-09-06T01:03:11;14.70;99.90
21861;DHT22;11095;48.066;8.540;2022-09-06T01:11:20;14.60;99.90
21861;DHT22;11095;48.066;8.540;2022-09-06T01:14:30;14.50;99.90
21861;DHT22;11095;48.066;8.540;2022-09-06T01:25:57;14.40;99.90
21861;DHT22;11095;48.066;8.540;2022-09-06T01:28:40;14.40;99.90
21861;DHT22;11095;48.066;8.540;2022-09-06T01:31:43;14.40;99.90
21861;DHT22;11095;48.066;8.540;2022-09-06T01:34:34;14.40;99.90
21861;DHT22;11095;48.066;8.540;2022-09-06T01:37:07;14.40;99.90
21861;DHT22;11095;48.066;8.540;2022-09-06T01:39:37;14.40;99.90
21861;DHT22;11095;48.066;8.540;2022-09-06T01:42:13;14.40;99.90
21861;DHT22;11095;48.066;8.540;2022-09-06T01:44:49;14.40;99.90
21861;DHT22;11095;48.066;8.540;2022-09-06T01:47:36;14.40;99.90
21861;DHT22;11095;48.066;8.540;2022-09-06T02:01:30;14.50;99.90
21861;DHT22;11095;48.066;8.540;2022-09-06T02:04:25;14.50;99.90
21861;DHT22;11095;48.066;8.540;2022-09-06T02:06:59;14.50;99.90
21861;DHT22;11095;48.066;8.540;2022-09-06T02:09:29;14.50;99.90
21861;DHT22;11095;48.066;8.540;2022-09-06T02:12:00;14.50;99.90
21861;DHT22;11095;48.066;8.540;2022-09-06T02:14:34;14.40;99.90
21861;DHT22;11095;48.066;8.540;2022-09-06T02:17:02;14.40;99.90
21861;DHT22;11095;48.066;8.540;2022-09-06T02:19:46;14.40;99.90
21861;DHT22;11095;48.066;8.540;2022-09-06T02:22:16;14.30;99.90
21861;DHT22;11095;48.066;8.540;2022-09-06T02:24:46;14.30;99.90
21861;DHT22;11095;48.066;8.540;2022-09-06T02:27:12;14.30;99.90
21861;DHT22;11095;48.066;8.540;2022-09-06T02:29:39;14.30;99.90
21861;DHT22;11095;48.066;8.540;2022-09-06T02:34:40;14.30;99.90
21861;DHT22;11095;48.066;8.540;2022-09-06T02:37:06;14.30;99.90
21861;DHT22;11095;48.066;8.540;2022-09-06T02:39:32;14.30;99.90
21861;DHT22;11095;48.066;8.540;2022-09-06T02:41:59;14.20;99.90
21861;DHT22;11095;48.066;8.540;2022-09-06T02:44:25;14.20;99.90
21861;DHT22;11095;48.066;8.540;2022-09-06T02:46:50;14.20;99.90
21861;DHT22;11095;48.066;8.540;2022-09-06T02:49:16;14.20;99.90
21861;DHT22;11095;48.066;8.540;2022-09-06T02:51:42;14.20;99.90
21861;DHT22;11095;48.066;8.540;2022-09-06T02:54:07;14.20;99.90
21861;DHT22;11095;48.066;8.540;2022-09-06T02:56:33;14.20;99.90
21861;DHT22;11095;48.066;8.540;2022-09-06T02:59:01;14.20;99.90
21861;DHT22;11095;48.066;8.540;2022-09-06T03:01:27;14.20;99.90
21861;DHT22;11095;48.066;8.540;2022-09-06T03:03:52;14.30;99.90
21861;DHT22;11095;48.066;8.540;2022-09-06T03:06:18;14.30;99.90
21861;DHT22;11095;48.066;8.540;2022-09-06T03:08:44;14.30;99.90
21861;DHT22;11095;48.066;8.540;2022-09-06T03:11:09;14.30;99.90
21861;DHT22;11095;48.066;8.540;2022-09-06T03:13:35;14.30;99.90
21861;DHT22;11095;48.066;8.540;2022-09-06T03:16:01;14.40;99.90
21861;DHT22;11095;48.066;8.540;2022-09-06T03:18:28;14.40;99.90
21861;DHT22;11095;48.066;8.540;2022-09-06T03:20:55;14.40;99.90
21861;DHT22;11095;48.066;8.540;2022-09-06T03:23:23;14.50;99.90
21861;DHT22;11095;48.066;8.540;2022-09-06T03:25:49;14.40;99.90
21861;DHT22;11095;48.066;8.540;2022-09-06T03:28:15;14.50;99.90
21861;DHT22;11095;48.066;8.540;2022-09-06T03:30:44;14.50;99.90
21861;DHT22;11095;48.066;8.540;2022-09-06T03:33:10;14.50;99.90
21861;DHT22;11095;48.066;8.540;2022-09-06T03:35:36;14.60;99.90
21861;DHT22;11095;48.066;8.540;2022-09-06T03:38:01;14.50;99.90
21861;DHT22;11095;48.066;8.540;2022-09-06T03:40:27;14.60;99.90
21861;DHT22;11095;48.066;8.540;2022-09-06T03:42:53;14.60;99.90
21861;DHT22;11095;48.066;8.540;2022-09-06T03:45:19;14.60;99.90
21861;DHT22;11095;48.066;8.540;2022-09-06T03:47:44;14.60;99.90
21861;DHT22;11095;48.066;8.540;2022-09-06T03:50:10;14.60;99.90
21861;DHT22;11095;48.066;8.540;2022-09-06T03:52:36;14.70;99.90
21861;DHT22;11095;48.066;8.540;2022-09-06T03:55:03;14.70;99.90
21861;DHT22;11095;48.066;8.540;2022-09-06T03:57:29;14.70;99.90
21861;DHT22;11095;48.066;8.540;2022-09-06T03:59:55;14.70;99.90
21861;DHT22;11095;48.066;8.540;2022-09-06T04:02:20;14.70;99.90
21861;DHT22;11095;48.066;8.540;2022-09-06T04:04:46;14.70;99.90
21861;DHT22;11095;48.066;8.540;2022-09-06T04:07:12;14.70;99.90
21861;DHT22;11095;48.066;8.540;2022-09-06T04:09:37;14.70;99.90
21861;DHT22;11095;48.066;8.540;2022-09-06T04:12:03;14.70;99.90
21861;DHT22;11095;48.066;8.540;2022-09-06T04:14:29;14.70;99.90
21861;DHT22;11095;48.066;8.540;2022-09-06T04:16:54;14.70;99.90
21861;DHT22;11095;48.066;8.540;2022-09-06T04:19:20;14.80;99.90
21861;DHT22;11095;48.066;8.540;2022-09-06T04:21:46;14.90;99.90
21861;DHT22;11095;48.066;8.540;2022-09-06T04:24:12;14.90;99.90
21861;DHT22;11095;48.066;8.540;2022-09-06T04:26:37;14.90;99.90
21861;DHT22;11095;48.066;8.540;2022-09-06T04:29:03;15.00;99.90
21861;DHT22;11095;48.066;8.540;2022-09-06T04:31:29;15.00;99.90
21861;DHT22;11095;48.066;8.540;2022-09-06T04:33:54;15.00;99.90
21861;DHT22;11095;48.066;8.540;2022-09-06T04:36:20;15.00;99.90
21861;DHT22;11095;48.066;8.540;2022-09-06T04:38:46;15.00;99.90
21861;DHT22;11095;48.066;8.540;2022-09-06T04:41:14;15.00;99.90
21861;DHT22;11095;48.066;8.540;2022-09-06T04:43:40;15.00;99.90
21861;DHT22;11095;48.066;8.540;2022-09-06T04:46:24;15.00;99.90
21861;DHT22;11095;48.066;8.540;2022-09-06T04:48:50;15.00;99.90
21861;DHT22;11095;48.066;8.540;2022-09-06T04:51:17;15.00;99.90
21861;DHT22;11095;48.066;8.540;2022-09-06T04:53:43;15.00;99.90
21861;DHT22;11095;48.066;8.540;2022-09-06T04:56:14;15.00;99.90
21861;DHT22;11095;48.066;8.540;2022-09-06T04:58:42;14.90;99.90
21861;DHT22;11095;48.066;8.540;2022-09-06T05:01:08;15.00;99.90
21861;DHT22;11095;48.066;8.540;2022-09-06T05:03:34;15.00;99.90
21861;DHT22;11095;48.066;8.540;2022-09-06T05:06:10;15.00;99.90
21861;DHT22;11095;48.066;8.540;2022-09-06T05:08:37;15.10;99.90
21861;DHT22;11095;48.066;8.540;2022-09-06T05:11:05;15.20;99.90
21861;DHT22;11095;48.066;8.540;2022-09-06T05:13:31;15.40;99.90
21861;DHT22;11095;48.066;8.540;2022-09-06T05:16:00;15.50;99.90
21861;DHT22;11095;48.066;8.540;2022-09-06T05:18:26;15.70;99.90
21861;DHT22;11095;48.066;8.540;2022-09-06T05:20:52;15.90;99.90
21861;DHT22;11095;48.066;8.540;2022-09-06T05:23:19;16.20;99.90
21861;DHT22;11095;48.066;8.540;2022-09-06T05:25:44;16.70;99.90
21861;DHT22;11095;48.066;8.540;2022-09-06T05:28:10;17.40;99.90
21861;DHT22;11095;48.066;8.540;2022-09-06T05:30:35;18.40;99.90
21861;DHT22;11095;48.066;8.540;2022-09-06T05:33:01;19.50;99.90
21861;DHT22;11095;48.066;8.540;2022-09-06T05:35:27;20.60;99.90
21861;DHT22;11095;48.066;8.540;2022-09-06T05:37:52;21.60;99.90
21861;DHT22;11095;48.066;8.540;2022-09-06T05:40:18;22.70;99.90
21861;DHT22;11095;48.066;8.540;2022-09-06T05:42:43;23.60;99.90
21861;DHT22;11095;48.066;8.540;2022-09-06T05:45:09;24.00;99.90
21861;DHT22;11095;48.066;8.540;2022-09-06T05:47:35;23.90;99.90
21861;DHT22;11095;48.066;8.540;2022-09-06T05:50:01;23.50;99.90
21861;DHT22;11095;48.066;8.540;2022-09-06T05:52:27;23.10;99.90
21861;DHT22;11095;48.066;8.540;2022-09-06T05:54:53;23.40;99.90
21861;DHT22;11095;48.066;8.540;2022-09-06T05:57:19;24.20;99.90
21861;DHT22;11095;48.066;8.540;2022-09-06T05:59:44;24.90;99.90
21861;DHT22;11095;48.066;8.540;2022-09-06T06:02:10;25.50;99.90
21861;DHT22;11095;48.066;8.540;2022-09-06T06:04:36;26.00;99.90
21861;DHT22;11095;48.066;8.540;2022-09-06T06:07:01;26.20;99.90
21861;DHT22;11095;48.066;8.540;2022-09-06T06:09:27;26.40;99.90
21861;DHT22;11095;48.066;8.540;2022-09-06T06:11:52;27.00;99.90
21861;DHT22;11095;48.066;8.540;2022-09-06T06:14:18;27.70;99.90
21861;DHT22;11095;48.066;8.540;2022-09-06T06:16:44;28.60;99.90
21861;DHT22;11095;48.066;8.540;2022-09-06T06:19:09;29.70;99.90
21861;DHT22;11095;48.066;8.540;2022-09-06T06:21:35;30.60;99.90
21861;DHT22;11095;48.066;8.540;2022-09-06T06:24:04;31.20;99.90
21861;DHT22;11095;48.066;8.540;2022-09-06T06:26:32;31.90;99.90
21861;DHT22;11095;48.066;8.540;2022-09-06T06:28:58;31.90;99.90
21861;DHT22;11095;48.066;8.540;2022-09-06T06:31:27;31.80;99.90
21861;DHT22;11095;48.066;8.540;2022-09-06T06:33:52;32.10;99.90
21861;DHT22;11095;48.066;8.540;2022-09-06T06:36:19;32.80;98.90
21861;DHT22;11095;48.066;8.540;2022-09-06T06:38:46;33.40;97.50
21861;DHT22;11095;48.066;8.540;2022-09-06T06:41:14;33.90;96.20
21861;DHT22;11095;48.066;8.540;2022-09-06T06:43:40;34.30;94.80
21861;DHT22;11095;48.066;8.540;2022-09-06T06:46:11;34.80;93.40
21861;DHT22;11095;48.066;8.540;2022-09-06T06:48:38;34.90;92.60
21861;DHT22;11095;48.066;8.540;2022-09-06T06:51:05;35.30;91.60
21861;DHT22;11095;48.066;8.540;2022-09-06T06:53:31;35.90;90.70
21861;DHT22;11095;48.066;8.540;2022-09-06T06:55:57;36.40;88.90
21861;DHT22;11095;48.066;8.540;2022-09-06T06:58:23;36.80;86.20
21861;DHT22;11095;48.066;8.540;2022-09-06T07:00:49;36.70;84.70
21861;DHT22;11095;48.066;8.540;2022-09-06T07:03:15;36.20;84.20
21861;DHT22;11095;48.066;8.540;2022-09-06T07:05:41;35.50;85.60
21861;DHT22;11095;48.066;8.540;2022-09-06T07:08:12;34.70;86.70
21861;DHT22;11095;48.066;8.540;2022-09-06T07:10:38;33.90;88.30
21861;DHT22;11095;48.066;8.540;2022-09-06T07:13:04;33.20;90.10
21861;DHT22;11095;48.066;8.540;2022-09-06T07:15:30;32.80;91.10
21861;DHT22;11095;48.066;8.540;2022-09-06T07:17:56;32.40;91.40
21861;DHT22;11095;48.066;8.540;2022-09-06T07:20:22;32.40;92.00
21861;DHT22;11095;48.066;8.540;2022-09-06T07:23:01;32.10;92.00
21861;DHT22;11095;48.066;8.540;2022-09-06T07:25:29;31.20;93.10
21861;DHT22;11095;48.066;8.540;2022-09-06T07:28:04;30.80;93.80
21861;DHT22;11095;48.066;8.540;2022-09-06T07:30:36;30.70;94.30
21861;DHT22;11095;48.066;8.540;2022-09-06T07:33:03;30.20;95.00
21861;DHT22;11095;48.066;8.540;2022-09-06T07:35:30;29.50;96.10
21861;DHT22;11095;48.066;8.540;2022-09-06T07:37:58;28.90;97.30
21861;DHT22;11095;48.066;8.540;2022-09-06T07:40:25;28.40;98.70
21861;DHT22;11095;48.066;8.540;2022-09-06T07:42:52;28.00;99.80
21861;DHT22;11095;48.066;8.540;2022-09-06T07:45:18;27.60;99.90
21861;DHT22;11095;48.066;8.540;2022-09-06T07:47:43;27.40;99.90
21861;DHT22;11095;48.066;8.540;2022-09-06T07:50:10;27.40;99.90
21861;DHT22;11095;48.066;8.540;2022-09-06T07:52:35;27.40;99.90
21861;DHT22;11095;48.066;8.540;2022-09-06T07:55:01;27.80;99.90
21861;DHT22;11095;48.066;8.540;2022-09-06T07:57:27;28.10;99.90
21861;DHT22;11095;48.066;8.540;2022-09-06T07:59:53;28.20;99.90
21861;DHT22;11095;48.066;8.540;2022-09-06T08:02:18;28.90;99.90
21861;DHT22;11095;48.066;8.540;2022-09-06T08:04:44;29.80;99.90
21861;DHT22;11095;48.066;8.540;2022-09-06T08:07:10;30.60;99.90
21861;DHT22;11095;48.066;8.540;2022-09-06T08:09:35;31.10;99.40
21861;DHT22;11095;48.066;8.540;2022-09-06T08:12:03;31.40;98.90
21861;DHT22;11095;48.066;8.540;2022-09-06T08:14:32;31.90;97.90
21861;DHT22;11095;48.066;8.540;2022-09-06T08:16:57;32.50;97.30
21861;DHT22;11095;48.066;8.540;2022-09-06T08:19:23;32.80;96.10
21861;DHT22;11095;48.066;8.540;2022-09-06T08:21:49;32.70;95.70
21861;DHT22;11095;48.066;8.540;2022-09-06T08:24:17;32.50;95.90
21861;DHT22;11095;48.066;8.540;2022-09-06T08:26:43;32.20;96.20
21861;DHT22;11095;48.066;8.540;2022-09-06T08:29:10;31.70;96.60
21861;DHT22;11095;48.066;8.540;2022-09-06T08:31:38;31.10;98.10
21861;DHT22;11095;48.066;8.540;2022-09-06T08:34:04;30.30;98.40
21861;DHT22;11095;48.066;8.540;2022-09-06T08:36:30;29.30;99.90
21861;DHT22;11095;48.066;8.540;2022-09-06T08:39:00;28.80;99.90
21861;DHT22;11095;48.066;8.540;2022-09-06T08:44:17;28.30;99.90
21861;DHT22;11095;48.066;8.540;2022-09-06T08:49:21;28.80;99.90
21861;DHT22;11095;48.066;8.540;2022-09-06T08:57:54;27.60;99.90
21861;DHT22;11095;48.066;8.540;2022-09-06T09:00:23;27.00;99.90
21861;DHT22;11095;48.066;8.540;2022-09-06T09:02:53;26.50;99.90
21861;DHT22;11095;48.066;8.540;2022-09-06T09:05:24;26.00;99.90
21861;DHT22;11095;48.066;8.540;2022-09-06T09:10:41;25.30;99.90
21861;DHT22;11095;48.066;8.540;2022-09-06T09:13:23;24.90;99.90
21861;DHT22;11095;48.066;8.540;2022-09-06T09:15:50;24.50;99.90
21861;DHT22;11095;48.066;8.540;2022-09-06T09:18:27;24.10;99.90
21861;DHT22;11095;48.066;8.540;2022-09-06T09:20:54;23.80;99.90
21861;DHT22;11095;48.066;8.540;2022-09-06T09:23:20;23.50;99.90
21861;DHT22;11095;48.066;8.540;2022-09-06T09:25:47;23.20;99.90
21861;DHT22;11095;48.066;8.540;2022-09-06T09:28:19;22.90;99.90
21861;DHT22;11095;48.066;8.540;2022-09-06T09:30:49;22.60;99.90
21861;DHT22;11095;48.066;8.540;2022-09-06T09:33:25;22.30;99.90
21861;DHT22;11095;48.066;8.540;2022-09-06T09:35:52;22.00;99.90
21861;DHT22;11095;48.066;8.540;2022-09-06T09:38:25;21.80;99.90
21861;DHT22;11095;48.066;8.540;2022-09-06T09:40:52;21.50;99.90
21861;DHT22;11095;48.066;8.540;2022-09-06T09:43:22;21.30;99.90
21861;DHT22;11095;48.066;8.540;2022-09-06T09:46:09;21.20;99.90
21861;DHT22;11095;48.066;8.540;2022-09-06T09:48:36;21.10;99.90
21861;DHT22;11095;48.066;8.540;2022-09-06T09:53:52;20.90;99.90
21861;DHT22;11095;48.066;8.540;2022-09-06T09:57:05;20.70;99.90
21861;DHT22;11095;48.066;8.540;2022-09-06T09:59:20;20.50;99.90
21861;DHT22;11095;48.066;8.540;2022-09-06T10:01:46;20.40;99.90
21861;DHT22;11095;48.066;8.540;2022-09-06T10:04:19;20.40;99.90
21861;DHT22;11095;48.066;8.540;2022-09-06T10:06:46;20.40;99.90
21861;DHT22;11095;48.066;8.540;2022-09-06T10:09:44;20.40;99.90
21861;DHT22;11095;48.066;8.540;2022-09-06T10:12:16;20.30;99.90
21861;DHT22;11095;48.066;8.540;2022-09-06T10:14:48;20.40;99.90
21861;DHT22;11095;48.066;8.540;2022-09-06T10:19:53;20.60;99.90
21861;DHT22;11095;48.066;8.540;2022-09-06T10:27:59;21.30;99.90
21861;DHT22;11095;48.066;8.540;2022-09-06T10:30:28;21.80;99.90
21861;DHT22;11095;48.066;8.540;2022-09-06T10:33:04;22.20;99.90
21861;DHT22;11095;48.066;8.540;2022-09-06T10:35:36;22.40;99.90
21861;DHT22;11095;48.066;8.540;2022-09-06T10:38:44;22.70;99.90
21861;DHT22;11095;48.066;8.540;2022-09-06T10:44:05;22.70;99.90
21861;DHT22;11095;48.066;8.540;2022-09-06T10:46:34;23.00;99.90
21861;DHT22;11095;48.066;8.540;2022-09-06T10:49:01;23.20;99.90
21861;DHT22;11095;48.066;8.540;2022-09-06T10:54:12;23.40;99.90
21861;DHT22;11095;48.066;8.540;2022-09-06T10:56:57;23.40;99.90
21861;DHT22;11095;48.066;8.540;2022-09-06T10:59:38;23.30;99.90
21861;DHT22;11095;48.066;8.540;2022-09-06T11:04:59;23.60;99.90
21861;DHT22;11095;48.066;8.540;2022-09-06T11:07:29;24.00;99.90
21861;DHT22;11095;48.066;8.540;2022-09-06T11:10:19;24.50;99.90
21861;DHT22;11095;48.066;8.540;2022-09-06T11:15:19;25.70;99.90
21861;DHT22;11095;48.066;8.540;2022-09-06T11:20:32;26.30;99.90
21861;DHT22;11095;48.066;8.540;2022-09-06T11:28:43;26.70;99.90
21861;DHT22;11095;48.066;8.540;2022-09-06T11:31:22;27.00;99.90
21861;DHT22;11095;48.066;8.540;2022-09-06T11:34:10;27.30;99.90
21861;DHT22;11095;48.066;8.540;2022-09-06T11:36:44;27.60;99.90
21861;DHT22;11095;48.066;8.540;2022-09-06T11:39:10;27.80;99.90
21861;DHT22;11095;48.066;8.540;2022-09-06T11:41:38;28.00;99.90
21861;DHT22;11095;48.066;8.540;2022-09-06T11:44:07;28.00;99.90
21861;DHT22;11095;48.066;8.540;2022-09-06T11:49:07;27.60;99.90
21861;DHT22;11095;48.066;8.540;2022-09-06T11:51:43;27.40;99.90
21861;DHT22;11095;48.066;8.540;2022-09-06T11:54:39;27.30;99.90
21861;DHT22;11095;48.066;8.540;2022-09-06T11:59:47;27.10;99.90
21861;DHT22;11095;48.066;8.540;2022-09-06T12:07:25;26.70;99.90
21861;DHT22;11095;48.066;8.540;2022-09-06T12:09:51;26.70;99.90
21861;DHT22;11095;48.066;8.540;2022-09-06T12:12:40;26.60;99.90
21861;DHT22;11095;48.066;8.540;2022-09-06T12:15:28;26.30;99.90
21861;DHT22;11095;48.066;8.540;2022-09-06T12:17:54;26.20;99.90
21861;DHT22;11095;48.066;8.540;2022-09-06T12:33:53;26.00;99.90
21861;DHT22;11095;48.066;8.540;2022-09-06T12:36:26;25.90;99.90
21861;DHT22;11095;48.066;8.540;2022-09-06T12:39:02;25.80;99.90
21861;DHT22;11095;48.066;8.540;2022-09-06T12:41:31;25.60;99.90
21861;DHT22;11095;48.066;8.540;2022-09-06T12:44:03;25.40;99.90
21861;DHT22;11095;48.066;8.540;2022-09-06T12:46:30;25.20;99.90
21861;DHT22;11095;48.066;8.540;2022-09-06T12:49:18;24.90;99.90
21861;DHT22;11095;48.066;8.540;2022-09-06T12:51:44;24.80;99.90
21861;DHT22;11095;48.066;8.540;2022-09-06T12:54:21;24.70;99.90
21861;DHT22;11095;48.066;8.540;2022-09-06T12:56:48;24.50;99.90
21861;DHT22;11095;48.066;8.540;2022-09-06T12:59:15;24.50;99.90
21861;DHT22;11095;48.066;8.540;2022-09-06T13:02:05;24.40;99.90
21861;DHT22;11095;48.066;8.540;2022-09-06T13:04:42;24.30;99.90
21861;DHT22;11095;48.066;8.540;2022-09-06T13:07:13;24.20;99.90
21861;DHT22;11095;48.066;8.540;2022-09-06T13:09:42;24.20;99.90
21861;DHT22;11095;48.066;8.540;2022-09-06T13:12:32;24.10;99.90
21861;DHT22;11095;48.066;8.540;2022-09-06T13:15:10;24.10;99.90
21861;DHT22;11095;48.066;8.540;2022-09-06T13:17:38;24.00;99.90
21861;DHT22;11095;48.066;8.540;2022-09-06T13:20:25;24.00;99.90
21861;DHT22;11095;48.066;8.540;2022-09-06T13:22:52;24.10;99.90
21861;DHT22;11095;48.066;8.540;2022-09-06T13:25:29;24.10;99.90
21861;DHT22;11095;48.066;8.540;2022-09-06T13:27:55;24.00;99.90
21861;DHT22;11095;48.066;8.540;2022-09-06T13:30:39;24.00;99.90
21861;DHT22;11095;48.066;8.540;2022-09-06T13:33:23;24.00;99.90
21861;DHT22;11095;48.066;8.540;2022-09-06T13:36:03;23.80;99.90
21861;DHT22;11095;48.066;8.540;2022-09-06T13:38:37;23.70;99.90
21861;DHT22;11095;48.066;8.540;2022-09-06T13:44:16;23.60;99.90
21861;DHT22;11095;48.066;8.540;2022-09-06T13:46:42;23.60;99.90
21861;DHT22;11095;48.066;8.540;2022-09-06T13:49:08;23.40;99.90
21861;DHT22;11095;48.066;8.540;2022-09-06T13:51:34;23.40;99.90
21861;DHT22;11095;48.066;8.540;2022-09-06T13:54:10;23.40;99.90
21861;DHT22;11095;48.066;8.540;2022-09-06T13:56:36;23.40;99.90
21861;DHT22;11095;48.066;8.540;2022-09-06T13:59:03;23.40;99.90
21861;DHT22;11095;48.066;8.540;2022-09-06T14:01:31;23.40;99.90
21861;DHT22;11095;48.066;8.540;2022-09-06T14:03:57;23.30;99.90
21861;DHT22;11095;48.066;8.540;2022-09-06T14:06:23;23.20;99.90
21861;DHT22;11095;48.066;8.540;2022-09-06T14:08:49;23.20;99.90
21861;DHT22;11095;48.066;8.540;2022-09-06T14:11:15;23.20;99.90
21861;DHT22;11095;48.066;8.540;2022-09-06T14:13:41;23.30;99.90
21861;DHT22;11095;48.066;8.540;2022-09-06T14:16:07;23.40;99.90
21861;DHT22;11095;48.066;8.540;2022-09-06T14:18:32;23.50;99.90
21861;DHT22;11095;48.066;8.540;2022-09-06T14:20:58;23.60;99.90
21861;DHT22;11095;48.066;8.540;2022-09-06T14:23:25;23.60;99.90
21861;DHT22;11095;48.066;8.540;2022-09-06T14:25:58;23.60;99.90
21861;DHT22;11095;48.066;8.540;2022-09-06T14:28:25;23.60;99.90
21861;DHT22;11095;48.066;8.540;2022-09-06T14:30:51;23.70;99.90
21861;DHT22;11095;48.066;8.540;2022-09-06T14:33:18;23.70;99.90
21861;DHT22;11095;48.066;8.540;2022-09-06T14:35:44;23.80;99.90
21861;DHT22;11095;48.066;8.540;2022-09-06T14:38:10;24.00;99.90
21861;DHT22;11095;48.066;8.540;2022-09-06T14:40:37;24.30;99.90
21861;DHT22;11095;48.066;8.540;2022-09-06T14:43:04;24.40;99.90
21861;DHT22;11095;48.066;8.540;2022-09-06T14:45:32;24.30;99.90
21861;DHT22;11095;48.066;8.540;2022-09-06T14:47:58;24.30;99.90
21861;DHT22;11095;48.066;8.540;2022-09-06T14:50:24;24.20;99.90
21861;DHT22;11095;48.066;8.540;2022-09-06T14:52:49;24.10;99.90
21861;DHT22;11095;48.066;8.540;2022-09-06T14:55:15;24.00;99.90
21861;DHT22;11095;48.066;8.540;2022-09-06T14:57:41;23.90;99.90
21861;DHT22;11095;48.066;8.540;2022-09-06T15:00:07;23.90;99.90
21861;DHT22;11095;48.066;8.540;2022-09-06T15:02:34;23.80;99.90
21861;DHT22;11095;48.066;8.540;2022-09-06T15:05:00;23.80;99.90
21861;DHT22;11095;48.066;8.540;2022-09-06T15:07:26;23.80;99.90
21861;DHT22;11095;48.066;8.540;2022-09-06T15:09:52;23.90;99.90
21861;DHT22;11095;48.066;8.540;2022-09-06T15:12:18;24.00;99.90
21861;DHT22;11095;48.066;8.540;2022-09-06T15:14:45;24.20;99.90
21861;DHT22;11095;48.066;8.540;2022-09-06T15:17:10;24.10;99.90
21861;DHT22;11095;48.066;8.540;2022-09-06T15:19:36;24.00;99.90
21861;DHT22;11095;48.066;8.540;2022-09-06T15:22:04;24.10;99.90
21861;DHT22;11095;48.066;8.540;2022-09-06T15:24:30;24.10;99.90
21861;DHT22;11095;48.066;8.540;2022-09-06T15:26:56;24.10;99.90
21861;DHT22;11095;48.066;8.540;2022-09-06T15:29:23;24.30;99.90
21861;DHT22;11095;48.066;8.540;2022-09-06T15:31:49;24.30;99.90
21861;DHT22;11095;48.066;8.540;2022-09-06T15:34:24;24.30;99.90
21861;DHT22;11095;48.066;8.540;2022-09-06T15:36:51;24.30;99.90
21861;DHT22;11095;48.066;8.540;2022-09-06T15:39:17;24.40;99.90
21861;DHT22;11095;48.066;8.540;2022-09-06T15:41:43;24.40;99.90
21861;DHT22;11095;48.066;8.540;2022-09-06T15:44:14;24.30;99.90
21861;DHT22;11095;48.066;8.540;2022-09-06T15:46:47;24.20;99.90
21861;DHT22;11095;48.066;8.540;2022-09-06T15:49:17;24.20;99.90
21861;DHT22;11095;48.066;8.540;2022-09-06T15:51:43;24.20;99.90
21861;DHT22;11095;48.066;8.540;2022-09-06T15:54:11;24.10;99.90
21861;DHT22;11095;48.066;8.540;2022-09-06T15:56:37;24.00;99.90
21861;DHT22;11095;48.066;8.540;2022-09-06T15:59:03;24.00;99.90
21861;DHT22;11095;48.066;8.540;2022-09-06T16:01:29;23.90;99.90
21861;DHT22;11095;48.066;8.540;2022-09-06T16:03:57;23.90;99.90
21861;DHT22;11095;48.066;8.540;2022-09-06T16:06:30;23.80;99.90
21861;DHT22;11095;48.066;8.540;2022-09-06T16:08:59;23.70;99.90
21861;DHT22;11095;48.066;8.540;2022-09-06T16:11:26;23.50;99.90
21861;DHT22;11095;48.066;8.540;2022-09-06T16:13:51;23.30;99.90
21861;DHT22;11095;48.066;8.540;2022-09-06T16:16:17;23.10;99.90
21861;DHT22;11095;48.066;8.540;2022-09-06T16:18:44;22.90;99.90
21861;DHT22;11095;48.066;8.540;2022-09-06T16:21:21;22.80;99.90
21861;DHT22;11095;48.066;8.540;2022-09-06T16:23:56;22.60;99.90
21861;DHT22;11095;48.066;8.540;2022-09-06T16:26:23;22.50;99.90
21861;DHT22;11095;48.066;8.540;2022-09-06T16:28:51;22.40;99.90
21861;DHT22;11095;48.066;8.540;2022-09-06T16:31:17;22.30;99.90
21861;DHT22;11095;48.066;8.540;2022-09-06T16:33:44;22.20;99.90
21861;DHT22;11095;48.066;8.540;2022-09-06T16:36:10;22.10;99.90
21861;DHT22;11095;48.066;8.540;2022-09-06T16:38:38;22.00;99.90
21861;DHT22;11095;48.066;8.540;2022-09-06T16:41:13;21.90;99.90
21861;DHT22;11095;48.066;8.540;2022-09-06T16:43:41;21.80;99.90
21861;DHT22;11095;48.066;8.540;2022-09-06T16:46:08;21.60;99.90
21861;DHT22;11095;48.066;8.540;2022-09-06T16:48:37;21.50;99.90
21861;DHT22;11095;48.066;8.540;2022-09-06T16:51:13;21.50;99.90
21861;DHT22;11095;48.066;8.540;2022-09-06T16:53:41;21.40;99.90
21861;DHT22;11095;48.066;8.540;2022-09-06T16:56:09;21.40;99.90
21861;DHT22;11095;48.066;8.540;2022-09-06T16:58:35;21.30;99.90
21861;DHT22;11095;48.066;8.540;2022-09-06T17:01:01;21.20;99.90
21861;DHT22;11095;48.066;8.540;2022-09-06T17:03:27;21.10;99.90
21861;DHT22;11095;48.066;8.540;2022-09-06T17:05:53;21.00;99.90
21861;DHT22;11095;48.066;8.540;2022-09-06T17:08:19;20.90;99.90
21861;DHT22;11095;48.066;8.540;2022-09-06T17:10:45;20.80;99.90
21861;DHT22;11095;48.066;8.540;2022-09-06T17:13:11;20.70;99.90
21861;DHT22;11095;48.066;8.540;2022-09-06T17:15:37;20.50;99.90
21861;DHT22;11095;48.066;8.540;2022-09-06T17:18:22;20.40;99.90
21861;DHT22;11095;48.066;8.540;2022-09-06T17:20:58;20.20;99.90
21861;DHT22;11095;48.066;8.540;2022-09-06T17:23:29;20.10;99.90